Time;durP1;ratioP1;P1;durP2;ratioP2;P2;SDS_P1;SDS_P2;PMS_P1;PMS_P2;Temp;Humidity;BMP_temperature;BMP_pressure;BME280_temperature;BME280_humidity;BME280_pressure;Samples;Min_cycle;Max_cycle;Signal;HPM_P1;HPM_P2
2022/04/26 03:37:19;;;;;;;24.42;12.93;;;;;;;5.06;98.70;100843.47;5061929;28;20044;-74
2022/04/26 03:39:46;;;;;;;22.40;12.25;;;;;;;5.09;99.51;100847.75;5024854;28;20040;-73
2022/04/26 03:42:13;;;;;;;21.80;12.55;;;;;;;5.11;99.16;100845.91;5027143;28;20512;-75
2022/04/26 03:44:42;;;;;;;29.00;12.57;;;;;;;5.14;99.31;100845.84;5041078;28;20399;-72
2022/04/26 03:47:09;;;;;;;23.25;13.00;;;;;;;5.16;98.89;100845.78;5021527;28;20074;-74
2022/04/26 03:49:37;;;;;;;26.48;13.00;;;;;;;5.18;99.28;100843.94;5026129;28;20112;-74
2022/04/26 03:52:04;;;;;;;17.75;11.43;;;;;;;5.21;98.28;100842.09;5059081;28;20091;-75
2022/04/26 03:54:31;;;;;;;20.52;12.13;;;;;;;5.20;99.22;100850.00;5027755;28;20379;-75
2022/04/26 03:56:59;;;;;;;20.73;11.52;;;;;;;5.23;98.96;100850.75;5046673;28;20058;-75
2022/04/26 03:59:26;;;;;;;25.00;13.07;;;;;;;5.25;98.49;100843.69;5057196;28;20044;-74
2022/04/26 04:01:53;;;;;;;23.50;12.43;;;;;;;5.29;99.38;100839.25;5038391;28;20090;-73
2022/04/26 04:04:21;;;;;;;21.17;12.98;;;;;;;5.33;98.00;100840.84;5056848;28;20083;-74
2022/04/26 04:06:49;;;;;;;20.08;11.93;;;;;;;5.39;98.45;100843.25;5032573;28;20051;-73
2022/04/26 04:09:16;;;;;;;25.92;12.07;;;;;;;5.43;97.68;100851.81;5028485;28;20917;-73
2022/04/26 04:11:43;;;;;;;21.63;12.48;;;;;;;5.44;97.53;100856.13;5045760;28;20115;-75
2022/04/26 04:14:10;;;;;;;21.98;12.35;;;;;;;5.48;97.32;100847.28;5025987;28;20079;-75
2022/04/26 04:16:38;;;;;;;20.38;12.60;;;;;;;5.47;97.75;100854.28;5064285;28;20061;-78
2022/04/26 04:19:17;;;;;;;28.02;12.38;;;;;;;5.54;96.77;100854.94;5044310;28;20045;-76
2022/04/26 04:21:45;;;;;;;19.60;12.18;;;;;;;5.62;95.85;100852.03;5043364;28;20056;-76
2022/04/26 04:25:09;;;;;;;20.63;12.60;;;;;;;5.60;96.11;100859.94;5059664;28;20098;-73
2022/04/26 04:27:36;;;;;;;21.50;12.15;;;;;;;5.66;95.73;100859.72;5057786;28;20060;-73
2022/04/26 04:30:04;;;;;;;25.70;13.63;;;;;;;5.73;95.36;100865.59;5043169;28;20125;-73
2022/04/26 04:32:31;;;;;;;21.17;12.27;;;;;;;5.80;95.48;100859.22;5039095;28;20493;-73
2022/04/26 04:34:59;;;;;;;25.80;12.93;;;;;;;5.87;94.44;100858.13;5037851;28;20549;-74
2022/04/26 04:37:26;;;;;;;23.00;12.70;;;;;;;5.95;94.68;100866.56;5061736;28;20060;-74
2022/04/26 04:39:53;;;;;;;23.88;12.75;;;;;;;5.99;94.13;100868.16;5040713;28;20053;-73
2022/04/26 04:42:21;;;;;;;20.92;12.48;;;;;;;6.02;94.04;100854.13;5043025;28;20063;-73
2022/04/26 04:44:48;;;;;;;24.17;13.30;;;;;;;6.07;93.20;100866.09;5058172;28;20052;-74
2022/04/26 04:47:15;;;;;;;21.02;12.23;;;;;;;6.13;93.06;100872.03;5042393;28;20056;-75
2022/04/26 04:49:43;;;;;;;22.95;12.10;;;;;;;6.19;92.89;100869.19;5058043;28;20049;-75
2022/04/26 04:52:10;;;;;;;19.10;11.35;;;;;;;6.28;92.41;100879.31;5046049;28;20052;-74
2022/04/26 04:54:37;;;;;;;27.50;11.60;;;;;;;6.33;92.14;100880.00;5057744;28;20053;-74
2022/04/26 04:57:05;;;;;;;18.08;11.50;;;;;;;6.40;91.82;100888.47;5057647;28;20159;-74
2022/04/26 04:59:32;;;;;;;20.60;11.55;;;;;;;6.45;91.10;100892.63;5048930;28;20057;-74
2022/04/26 05:02:00;;;;;;;17.67;11.65;;;;;;;6.53;90.82;100889.72;5054382;28;20518;-75
2022/04/26 05:04:28;;;;;;;19.02;11.40;;;;;;;6.59;90.24;100892.94;5045370;28;20371;-75
2022/04/26 05:06:55;;;;;;;20.08;11.20;;;;;;;6.69;89.03;100895.19;5041736;28;20671;-74
2022/04/26 05:09:22;;;;;;;17.15;11.30;;;;;;;6.74;88.21;100896.72;5043413;28;20052;-73
2022/04/26 05:11:49;;;;;;;18.33;10.90;;;;;;;6.81;87.78;100895.59;5037949;28;20051;-73
2022/04/26 05:14:17;;;;;;;17.30;10.38;;;;;;;6.93;86.37;100893.38;5042107;28;20049;-74
2022/04/26 05:16:44;;;;;;;18.35;10.20;;;;;;;7.03;85.17;100897.38;5044471;28;20065;-74
2022/04/26 05:19:11;;;;;;;17.85;10.73;;;;;;;7.10;84.49;100898.81;5032032;28;20075;-73
2022/04/26 05:21:38;;;;;;;19.35;10.95;;;;;;;7.18;84.26;100895.88;5063764;28;20052;-73
2022/04/26 05:26:52;;;;;;;19.15;10.82;;;;;;;7.33;81.93;100903.97;5067828;28;20098;-75
2022/04/26 05:29:19;;;;;;;17.65;10.48;;;;;;;7.38;81.55;100905.53;5066722;28;20052;-74
2022/04/26 05:31:46;;;;;;;26.90;12.40;;;;;;;7.47;81.54;100908.63;5049427;28;20533;-75
2022/04/26 05:34:13;;;;;;;19.50;11.32;;;;;;;7.50;80.65;100915.50;5056161;28;20044;-73
2022/04/26 05:36:41;;;;;;;23.63;12.57;;;;;;;7.53;80.22;100915.41;5049803;28;20044;-74
2022/04/26 05:39:08;;;;;;;17.88;11.80;;;;;;;7.56;80.12;100908.25;5048631;28;20144;-74
2022/04/26 05:41:41;;;;;;;20.08;11.85;;;;;;;7.58;79.90;100905.56;5031557;28;20053;-73
2022/04/26 05:44:08;;;;;;;23.95;11.07;;;;;;;7.65;78.85;100908.78;5058762;28;20176;-73
2022/04/26 05:46:36;;;;;;;19.73;10.45;;;;;;;7.74;78.09;100909.22;5049390;28;20064;-74
2022/04/26 05:49:03;;;;;;;19.42;10.30;;;;;;;7.87;77.29;100914.81;5046569;28;20652;-74
2022/04/26 05:51:30;;;;;;;14.45;9.98;;;;;;;7.97;76.75;100917.88;5067327;28;20053;-73
2022/04/26 05:53:57;;;;;;;19.13;10.07;;;;;;;8.08;75.08;100911.25;5050263;28;20048;-74
2022/04/26 05:56:25;;;;;;;16.67;9.85;;;;;;;8.17;74.93;100917.03;5051338;28;20068;-74
2022/04/26 05:58:52;;;;;;;17.73;10.15;;;;;;;8.25;74.38;100918.38;5053486;28;20059;-75
2022/04/26 06:01:19;;;;;;;20.73;9.73;;;;;;;8.29;73.60;100908.63;5070490;28;20066;-73
2022/04/26 06:03:46;;;;;;;24.65;11.07;;;;;;;8.30;74.43;100919.03;5050272;28;20383;-75
2022/04/26 06:06:14;;;;;;;21.63;9.73;;;;;;;8.35;72.46;100903.09;5067190;28;20107;-73
2022/04/26 06:08:41;;;;;;;19.40;9.20;;;;;;;8.53;71.75;100910.16;5031739;28;20460;-74
2022/04/26 06:11:15;;;;;;;19.40;9.63;;;;;;;8.61;69.54;100902.78;5046099;28;20055;-73
2022/04/26 06:13:42;;;;;;;15.65;8.77;;;;;;;8.82;68.74;100911.41;5050643;28;20054;-73
2022/04/26 06:16:09;;;;;;;13.43;7.53;;;;;;;8.96;68.96;100913.41;5039838;28;20068;-73
2022/04/26 06:18:37;;;;;;;12.68;7.32;;;;;;;9.09;67.67;100913.66;5065444;28;20056;-74
2022/04/26 06:21:04;;;;;;;14.43;7.50;;;;;;;9.20;66.77;100910.53;5042264;28;20049;-73
2022/04/26 06:23:31;;;;;;;11.52;5.85;;;;;;;9.29;64.83;100910.91;5038265;28;20053;-74
2022/04/26 06:25:59;;;;;;;9.07;5.07;;;;;;;9.37;63.53;100905.28;5044679;28;20055;-74
2022/04/26 06:28:26;;;;;;;9.95;5.68;;;;;;;9.45;62.42;100908.38;5050139;28;20106;-73
2022/04/26 06:30:56;;;;;;;11.27;5.97;;;;;;;9.51;60.67;100910.72;5059602;28;20052;-74
2022/04/26 06:33:23;;;;;;;9.77;5.30;;;;;;;9.57;61.59;100914.81;5049506;28;20417;-74
2022/04/26 06:35:51;;;;;;;7.53;4.82;;;;;;;9.60;60.57;100909.41;5065024;28;20052;-74
2022/04/26 06:38:19;;;;;;;9.05;5.00;;;;;;;9.53;59.42;100915.88;5046347;28;20063;-74
2022/04/26 06:40:46;;;;;;;7.63;4.35;;;;;;;9.54;58.29;100918.41;5030249;28;20175;-74
2022/04/26 06:43:14;;;;;;;8.65;4.65;;;;;;;9.60;57.78;100912.03;5044076;28;20041;-74
2022/04/26 06:45:41;;;;;;;6.20;4.28;;;;;;;9.76;57.49;100912.09;5062470;28;20116;-75
2022/04/26 06:48:09;;;;;;;10.77;4.72;;;;;;;9.84;57.02;100909.94;5051702;28;20406;-74
2022/04/26 06:50:37;;;;;;;6.93;4.18;;;;;;;9.90;56.58;100917.50;5047473;28;20040;-75
2022/04/26 06:53:05;;;;;;;11.77;3.95;;;;;;;10.04;55.96;100915.03;5033354;28;20368;-75
2022/04/26 06:55:33;;;;;;;6.70;3.90;;;;;;;10.16;56.23;100913.50;5010638;28;20052;-74
2022/04/26 06:58:00;;;;;;;7.07;4.15;;;;;;;10.25;54.30;100914.84;5050482;28;20064;-74
2022/04/26 07:00:27;;;;;;;10.55;4.38;;;;;;;10.41;55.32;100907.84;5027543;28;20056;-73
2022/04/26 07:02:55;;;;;;;8.20;4.43;;;;;;;10.52;54.65;100910.72;5040397;28;20048;-75
2022/04/26 07:05:24;;;;;;;10.32;4.32;;;;;;;10.58;54.26;100914.81;5021446;28;20053;-73
2022/04/26 07:07:52;;;;;;;10.25;4.10;;;;;;;10.67;53.21;100916.09;5057140;28;20401;-75
2022/04/26 07:10:21;;;;;;;7.20;4.20;;;;;;;10.80;52.36;100914.47;5065104;28;20048;-74
2022/04/26 07:12:48;;;;;;;6.70;3.90;;;;;;;10.89;51.65;100912.19;5067826;28;20418;-74
2022/04/26 07:15:16;;;;;;;9.60;4.40;;;;;;;10.97;50.33;100913.56;5033347;28;20522;-74
2022/04/26 07:17:46;;;;;;;6.82;3.63;;;;;;;11.04;50.90;100913.13;5066452;28;20054;-74
2022/04/26 07:20:13;;;;;;;5.53;3.35;;;;;;;11.11;50.42;100916.25;5050911;28;20060;-74
2022/04/26 07:22:40;;;;;;;4.47;2.92;;;;;;;11.22;50.32;100915.66;5068147;28;20048;-74
2022/04/26 07:25:10;;;;;;;6.68;3.17;;;;;;;11.37;49.43;100920.06;5048879;28;20060;-74
2022/04/26 07:27:37;;;;;;;5.45;3.00;;;;;;;11.50;49.17;100918.41;5026555;28;20061;-74
2022/04/26 07:30:05;;;;;;;8.05;3.17;;;;;;;11.52;47.74;100924.44;5037382;28;20140;-74
2022/04/26 07:35:18;;;;;;;;;;;;;;;11.79;46.39;100921.13;5053045;28;20052;-74
2022/04/26 07:37:45;;;;;;;4.60;2.83;;;;;;;11.89;46.16;100922.31;5051193;28;19931;-74
2022/04/26 07:40:12;;;;;;;5.57;3.22;;;;;;;11.95;46.12;100923.75;5047750;28;20137;-74
2022/04/26 07:42:40;;;;;;;7.70;3.15;;;;;;;12.05;46.13;100923.09;5031014;28;20139;-74
2022/04/26 07:45:09;;;;;;;5.28;3.25;;;;;;;12.10;45.42;100928.94;5055168;28;20068;-75
2022/04/26 07:47:36;;;;;;;4.68;2.67;;;;;;;12.23;44.66;100930.84;5023238;28;20049;-74
2022/04/26 07:50:04;;;;;;;4.43;2.67;;;;;;;12.20;43.60;100931.84;5032359;28;20033;-75
2022/04/26 07:52:31;;;;;;;3.28;2.05;;;;;;;12.22;43.50;100924.72;5032174;28;20051;-74
2022/04/26 07:54:58;;;;;;;4.65;2.65;;;;;;;12.27;43.40;100929.69;5034532;28;20152;-75
2022/04/26 07:57:26;;;;;;;3.95;2.60;;;;;;;12.42;42.46;100926.13;5049938;28;20056;-74
2022/04/26 07:59:53;;;;;;;4.78;2.28;;;;;;;12.41;41.81;100925.25;5048758;28;20050;-74
2022/04/26 08:02:22;;;;;;;5.05;2.50;;;;;;;12.51;42.23;100924.69;5048796;28;20059;-74
2022/04/26 08:04:49;;;;;;;3.00;2.00;;;;;;;12.70;41.79;100938.47;5040367;28;20882;-74
2022/04/26 08:07:16;;;;;;;3.25;2.13;;;;;;;12.79;40.70;100934.38;5049026;28;20048;-75
2022/04/26 08:09:44;;;;;;;4.93;2.20;;;;;;;12.78;40.55;100941.44;5045109;28;20062;-73
2022/04/26 08:12:12;;;;;;;7.22;2.17;;;;;;;12.71;39.95;100942.81;5047516;28;20052;-73
2022/04/26 08:14:39;;;;;;;5.38;1.85;;;;;;;12.81;40.18;100938.63;5041351;28;20103;-73
2022/04/26 08:17:06;;;;;;;6.82;2.20;;;;;;;12.94;39.74;100930.78;5051976;28;20057;-73
2022/04/26 08:19:34;;;;;;;4.13;2.30;;;;;;;13.01;40.15;100940.00;5043363;28;20049;-73
2022/04/26 08:22:02;;;;;;;4.47;1.98;;;;;;;13.22;40.57;100937.81;5047505;28;20383;-73
2022/04/26 08:27:30;;;;;;;3.58;1.45;;;;;;;13.36;38.84;100937.75;5057122;28;20649;-73
2022/04/26 08:30:00;;;;;;;3.25;1.85;;;;;;;13.56;38.32;100943.53;5038772;28;20052;-73
2022/04/26 08:32:28;;;;;;;5.57;1.60;;;;;;;13.73;38.30;100945.88;5047532;28;20048;-73
2022/04/26 08:34:58;;;;;;;3.97;1.70;;;;;;;13.79;38.74;100936.72;5048155;28;20087;-73
2022/04/26 08:37:25;;;;;;;4.78;1.85;;;;;;;13.92;38.03;100941.06;5062930;28;20515;-74
2022/04/26 08:39:55;;;;;;;5.82;1.95;;;;;;;14.10;38.64;100949.56;5044145;28;20052;-73
2022/04/26 08:42:40;;;;;;;7.75;1.77;;;;;;;14.11;37.35;100955.69;5036822;28;20455;-73
2022/04/26 08:45:16;;;;;;;4.68;2.53;;;;;;;14.01;37.03;100952.00;5048788;28;20057;-74
2022/04/26 08:53:21;;;;;;;5.18;1.77;;;;;;;14.38;37.00;100950.28;5050607;28;20135;-73
2022/04/26 08:55:50;;;;;;;4.07;2.10;;;;;;;14.46;36.66;100945.31;5013031;28;20057;-74
2022/04/26 08:58:18;;;;;;;4.38;2.58;;;;;;;14.62;36.27;100953.88;5049305;28;20045;-74
2022/04/26 09:01:15;;;;;;;6.32;1.77;;;;;;;14.78;36.46;100950.16;5047044;28;20060;-74
2022/04/26 09:04:02;;;;;;;4.72;2.08;;;;;;;14.71;35.71;100948.91;5042396;28;20051;-73
2022/04/26 09:06:33;;;;;;;3.50;2.17;;;;;;;14.53;34.93;100951.88;5020183;28;20063;-74
2022/04/26 09:09:10;;;;;;;5.38;1.88;;;;;;;14.54;35.57;100956.22;5028903;28;20048;-74
2022/04/26 09:11:38;;;;;;;3.35;1.65;;;;;;;14.60;35.67;100945.22;5040224;28;20128;-73
2022/04/26 09:14:08;;;;;;;4.50;1.98;;;;;;;14.81;36.54;100956.06;5028904;28;20048;-74
2022/04/26 09:16:36;;;;;;;2.00;1.52;;;;;;;15.00;36.03;100946.84;5044803;28;20060;-74
2022/04/26 09:19:08;;;;;;;2.85;1.58;;;;;;;15.16;36.60;100952.69;5045439;28;20088;-74
2022/04/26 09:21:36;;;;;;;4.28;1.83;;;;;;;15.19;35.85;100952.47;5061081;28;20154;-74
2022/04/26 09:24:06;;;;;;;4.32;2.28;;;;;;;15.25;36.44;100951.19;5047318;28;20079;-74
2022/04/26 09:26:38;;;;;;;4.80;1.98;;;;;;;15.29;35.13;100947.34;5044281;28;20055;-74
2022/04/26 09:29:07;;;;;;;3.53;1.65;;;;;;;15.43;35.74;100952.47;5028948;28;20471;-74
2022/04/26 09:31:36;;;;;;;6.60;2.40;;;;;;;15.52;36.51;100951.78;5046691;28;20041;-74
2022/04/26 09:34:14;;;;;;;3.15;1.88;;;;;;;15.42;34.96;100943.66;5065141;28;20097;-75
2022/04/26 09:36:43;;;;;;;3.72;2.28;;;;;;;15.38;35.80;100941.34;5062181;28;20056;-74
2022/04/26 09:39:17;;;;;;;4.28;2.35;;;;;;;15.55;37.44;100943.59;5048194;28;20403;-74
2022/04/26 09:42:04;;;;;;;6.20;2.20;;;;;;;15.60;36.14;100937.97;5038494;28;20052;-74
2022/04/26 09:44:33;;;;;;;7.97;2.33;;;;;;;15.77;35.83;100939.38;5053417;28;20072;-74
2022/04/26 09:47:00;;;;;;;3.78;1.92;;;;;;;16.07;36.29;100939.69;5029508;28;20052;-74
2022/04/26 09:49:35;;;;;;;2.90;1.98;;;;;;;16.24;35.87;100945.50;5045127;28;20063;-74
2022/04/26 09:52:03;;;;;;;5.20;2.00;;;;;;;16.33;35.91;100939.47;5047082;28;20395;-74
2022/04/26 09:54:31;;;;;;;4.25;2.20;;;;;;;16.34;35.18;100935.84;5063800;28;20506;-74
2022/04/26 09:56:59;;;;;;;8.70;2.15;;;;;;;16.36;36.32;100928.63;5046254;28;20044;-75
2022/04/26 09:59:30;;;;;;;3.17;2.10;;;;;;;16.54;35.85;100937.81;5026515;28;20102;-75
2022/04/26 10:01:59;;;;;;;3.17;2.20;;;;;;;16.67;36.41;100937.69;5051194;28;20048;-74
2022/04/26 10:04:28;;;;;;;6.22;2.60;;;;;;;16.85;35.51;100936.22;5045182;28;20048;-75
2022/04/26 10:07:03;;;;;;;4.57;2.63;;;;;;;16.83;35.41;100932.00;5015750;28;20048;-74
2022/04/26 10:09:30;;;;;;;3.75;1.90;;;;;;;17.05;36.25;100931.94;5049220;28;20052;-75
2022/04/26 10:12:00;;;;;;;6.40;2.25;;;;;;;17.11;34.22;100934.13;5050207;28;20041;-75
2022/04/26 10:14:28;;;;;;;4.97;2.63;;;;;;;17.00;34.06;100936.81;5045375;28;20136;-75
2022/04/26 10:16:56;;;;;;;2.85;2.20;;;;;;;16.89;33.71;100931.53;5026090;28;20068;-75
2022/04/26 10:19:38;;;;;;;4.53;2.42;;;;;;;17.02;34.70;100937.53;5049010;28;20384;-75
2022/04/26 10:22:08;;;;;;;4.50;2.15;;;;;;;17.42;35.70;100940.41;5046776;28;20052;-74
2022/04/26 10:24:36;;;;;;;4.60;2.00;;;;;;;17.60;34.09;100930.06;5044172;28;20048;-74
2022/04/26 10:27:20;;;;;;;7.07;3.13;;;;;;;17.29;33.57;100938.91;5050504;28;20388;-75
2022/04/26 10:29:47;;;;;;;6.80;2.92;;;;;;;17.14;33.34;100933.03;5050945;28;20509;-75
2022/04/26 10:32:38;;;;;;;5.28;2.13;;;;;;;17.44;35.32;100933.16;5049240;28;20061;-74
2022/04/26 10:35:28;;;;;;;7.55;2.42;;;;;;;17.75;34.56;100935.13;5030159;28;20143;-74
2022/04/26 10:38:17;;;;;;;2.22;1.90;;;;;;;18.10;34.71;100932.09;5033643;28;20045;-75
2022/04/26 10:41:09;;;;;;;3.85;2.28;;;;;;;18.25;32.97;100938.81;5061325;28;20041;-75
2022/04/26 10:43:37;;;;;;;5.25;2.83;;;;;;;17.93;32.57;100937.06;5048980;28;20065;-72
2022/04/26 10:46:15;;;;;;;4.25;2.67;;;;;;;18.06;34.59;100934.22;5049694;28;20044;-74
2022/04/26 10:48:42;;;;;;;6.65;2.38;;;;;;;18.34;32.20;100934.50;5043136;28;20067;-75
2022/04/26 10:51:35;;;;;;;4.70;2.05;;;;;;;18.43;33.63;100933.69;5025239;28;20461;-75
2022/04/26 10:54:05;;;;;;;4.40;2.25;;;;;;;18.57;33.03;100933.34;5014257;28;20048;-75
2022/04/26 10:56:33;;;;;;;4.50;2.45;;;;;;;18.61;32.44;100924.09;5066407;28;20274;-75
2022/04/26 10:59:00;;;;;;;3.42;2.38;;;;;;;17.97;31.68;100927.00;5033604;28;20134;-74
2022/04/26 11:01:30;;;;;;;7.22;2.55;;;;;;;17.80;31.51;100925.78;5043419;28;20048;-74
2022/04/26 11:03:58;;;;;;;3.00;2.58;;;;;;;17.93;33.03;100933.56;5057896;28;20060;-75
2022/04/26 11:06:41;;;;;;;4.60;2.08;;;;;;;18.20;32.33;100928.53;5040542;28;20037;-72
2022/04/26 11:09:09;;;;;;;2.95;2.10;;;;;;;18.63;32.42;100923.94;5031384;28;20403;-74
2022/04/26 11:11:53;;;;;;;4.10;2.17;;;;;;;19.07;31.65;100924.53;5032826;28;20056;-74
2022/04/26 11:14:24;;;;;;;6.25;2.30;;;;;;;19.38;30.82;100927.94;5048451;28;20063;-74
2022/04/26 11:16:58;;;;;;;3.47;2.60;;;;;;;19.61;31.35;100929.34;5021080;28;20498;-74
2022/04/26 11:19:34;;;;;;;6.25;2.78;;;;;;;19.91;30.80;100924.84;5032899;28;20067;-75
2022/04/26 11:22:14;;;;;;;5.30;2.20;;;;;;;19.86;30.70;100930.63;5049458;28;20055;-74
2022/04/26 11:30:29;;;;;;;3.90;2.47;;;;;;;20.13;30.61;100934.34;5047737;28;20139;-74
2022/04/26 11:33:01;;;;;;;5.70;2.72;;;;;;;20.60;29.79;100929.00;5063107;28;20419;-74
2022/04/26 11:35:29;;;;;;;7.05;2.53;;;;;;;20.70;28.43;100937.81;5049004;28;20440;-74
2022/04/26 11:37:59;;;;;;;3.88;2.25;;;;;;;20.63;28.40;100932.22;5032980;28;20040;-74
2022/04/26 11:40:27;;;;;;;3.88;2.20;;;;;;;21.13;28.44;100937.16;5031622;28;20060;-75
2022/04/26 11:42:57;;;;;;;5.20;2.72;;;;;;;21.17;28.47;100933.19;5048259;28;20150;-74
2022/04/26 11:45:28;;;;;;;3.45;2.38;;;;;;;21.28;29.16;100931.28;5040699;28;20052;-74
2022/04/26 11:47:56;;;;;;;3.78;2.22;;;;;;;21.54;27.60;100937.59;5032843;28;20194;-74
2022/04/26 11:50:30;;;;;;;5.22;2.58;;;;;;;21.30;27.55;100935.50;5048051;28;20048;-75
2022/04/26 11:53:02;;;;;;;6.45;2.50;;;;;;;21.44;27.95;100932.31;5046287;28;20056;-75
2022/04/26 11:55:31;;;;;;;6.13;2.65;;;;;;;21.36;27.60;100931.38;5044431;28;20683;-75
2022/04/26 11:58:16;;;;;;;3.72;2.22;;;;;;;21.78;27.31;100928.91;5033523;28;20058;-75
2022/04/26 12:01:02;;;;;;;6.38;2.45;;;;;;;22.07;26.03;100938.50;5036526;28;20141;-75
2022/04/26 12:03:59;;;;;;;4.00;2.55;;;;;;;21.52;25.70;100938.72;5045741;28;20055;-74
2022/04/26 12:06:29;;;;;;;5.03;2.15;;;;;;;20.47;26.29;100946.22;5037860;28;20443;-74
2022/04/26 12:08:58;;;;;;;4.63;2.35;;;;;;;20.26;26.97;100939.38;5048007;28;20116;-74
2022/04/26 12:11:30;;;;;;;4.00;2.40;;;;;;;20.14;27.63;100933.38;5021691;28;20040;-74
2022/04/26 12:14:11;;;;;;;7.38;2.88;;;;;;;21.12;27.54;100932.81;5055106;28;20067;-74
2022/04/26 12:16:44;;;;;;;6.38;2.40;;;;;;;21.90;26.42;100932.19;5038999;28;20083;-74
2022/04/26 12:19:11;;;;;;;3.17;2.03;;;;;;;22.63;26.56;100935.31;5034926;28;20131;-74
2022/04/26 12:21:49;;;;;;;5.22;2.55;;;;;;;22.54;23.94;100927.38;5047051;28;20617;-74
2022/04/26 12:24:17;;;;;;;2.53;2.00;;;;;;;;;;5061279;28;20050;-74
2022/04/26 12:26:54;;;;;;;4.80;1.88;;;;;;;22.86;25.63;100924.00;5057034;28;20055;-75
2022/04/26 12:29:30;;;;;;;3.40;2.20;;;;;;;23.08;22.78;100922.56;5034651;28;20063;-74
2022/04/26 12:31:58;;;;;;;3.13;2.17;;;;;;;22.98;23.34;100923.56;5027103;28;20155;-74
2022/04/26 12:34:30;;;;;;;3.25;2.08;;;;;;;22.88;23.43;100922.00;5057281;28;20033;-74
2022/04/26 12:37:08;;;;;;;6.18;2.25;;;;;;;23.03;22.51;100920.38;5047588;28;20048;-74
2022/04/26 12:39:38;;;;;;;3.53;1.98;;;;;;;23.03;23.20;100920.38;5045025;28;20163;-74
2022/04/26 12:42:07;;;;;;;5.03;2.30;;;;;;;23.18;22.02;100910.66;5039668;28;20056;-74
2022/04/26 12:44:37;;;;;;;6.72;2.10;;;;;;;23.23;22.65;100919.06;5036022;28;20562;-74
2022/04/26 12:52:49;;;;;;;5.28;1.70;;;;;;;24.59;22.29;100905.03;5057437;28;20055;-74
2022/04/26 12:55:29;;;;;;;3.70;1.83;;;;;;;24.41;22.06;100907.94;5061659;28;20068;-74
2022/04/26 12:57:59;;;;;;;4.60;2.17;;;;;;;24.92;22.07;100898.44;5042624;28;20081;-74
2022/04/26 13:00:27;;;;;;;3.75;2.08;;;;;;;24.70;21.55;100900.06;5054743;28;20193;-74
2022/04/26 13:03:03;;;;;;;4.38;1.92;;;;;;;25.13;21.57;100900.53;5029828;28;20150;-74
2022/04/26 13:05:41;;;;;;;5.68;1.80;;;;;;;25.64;21.31;100897.28;5039381;28;20069;-74
2022/04/26 13:08:09;;;;;;;9.18;2.13;;;;;;;25.42;20.79;100893.59;5022461;28;20044;-75
2022/04/26 13:10:37;;;;;;;5.63;2.10;;;;;;;25.45;20.56;100885.16;5043703;28;20071;-74
2022/04/26 13:13:06;;;;;;;4.93;1.98;;;;;;;25.52;21.19;100886.06;5028096;28;20080;-76
2022/04/26 13:15:34;;;;;;;3.55;1.73;;;;;;;25.46;20.90;100884.94;5063473;28;20136;-75
2022/04/26 13:22:08;;;;;;;5.65;1.88;;;;;;;25.56;21.15;100886.56;5051880;28;20052;-75
2022/04/26 13:24:36;;;;;;;2.28;1.98;;;;;;;25.95;20.96;100883.69;5058147;28;20060;-74
2022/04/26 13:27:06;;;;;;;4.47;2.22;;;;;;;25.60;20.13;100885.19;5064839;28;20052;-74
2022/04/26 13:29:34;;;;;;;4.40;2.17;;;;;;;24.99;20.90;100882.41;5046610;28;20055;-74
2022/04/26 13:32:02;;;;;;;4.97;2.35;;;;;;;24.72;20.46;100886.41;5059101;28;20063;-75
2022/04/26 13:34:29;;;;;;;3.20;2.22;;;;;;;24.71;21.56;100887.44;5061511;28;20061;-74
2022/04/26 13:37:07;;;;;;;3.72;1.92;;;;;;;26.30;19.66;100886.66;5025835;28;22166;-73
2022/04/26 13:39:35;;;;;;;6.28;1.58;;;;;;;28.22;19.06;100885.91;5044541;28;20612;-74
2022/04/26 13:42:46;;;;;;;5.55;2.20;;;;;;;29.74;17.55;100885.56;5026808;28;20497;-73
2022/04/26 13:45:14;;;;;;;5.47;1.90;;;;;;;32.46;14.81;100882.03;5044351;28;20185;-73
2022/04/26 13:47:41;;;;;;;2.70;1.90;;;;;;;36.13;12.42;100880.13;5041504;28;20041;-72
2022/04/26 13:50:09;;;;;;;3.92;1.85;;;;;;;37.58;10.93;100883.06;5023673;28;20149;-72
2022/04/26 13:52:38;;;;;;;6.25;2.63;;;;;;;34.19;12.45;100879.38;5054833;28;20570;-72
2022/04/26 13:55:05;;;;;;;2.83;2.00;;;;;;;30.63;14.62;100878.66;5045019;28;20507;-72
2022/04/26 13:57:33;;;;;;;5.18;1.85;;;;;;;28.67;16.00;100880.94;5061613;28;20075;-72
2022/04/26 14:00:07;;;;;;;2.80;1.98;;;;;;;26.86;17.22;100879.72;5029656;28;20044;-72
2022/04/26 14:02:35;;;;;;;10.63;2.15;;;;;;;24.68;18.44;100879.75;5063432;28;20482;-72
2022/04/26 14:05:04;;;;;;;11.13;1.95;;;;;;;23.87;19.37;100888.88;5063840;28;20507;-73
2022/04/26 14:07:31;;;;;;;6.50;1.90;;;;;;;23.49;19.77;100881.31;5042496;28;20045;-73
2022/04/26 14:09:58;;;;;;;5.60;1.95;;;;;;;23.43;19.10;100886.53;5064151;28;20347;-72
2022/04/26 14:12:25;;;;;;;7.78;1.60;;;;;;;22.84;20.07;100869.63;5045674;28;20052;-72
2022/04/26 14:23:09;;;;;;;7.47;2.03;;;;;;;21.21;22.09;100878.34;5060286;28;20045;-73
2022/04/26 14:25:38;;;;;;;4.78;1.85;;;;;;;21.17;23.31;100876.13;5028391;28;20080;-73
2022/04/26 14:28:05;;;;;;;5.18;1.70;;;;;;;20.78;22.18;100875.53;5055976;28;20048;-73
2022/04/26 14:30:33;;;;;;;3.10;1.80;;;;;;;20.56;22.98;100882.97;5061149;28;20395;-73
2022/04/26 14:33:08;;;;;;;3.40;1.90;;;;;;;20.67;23.53;100873.94;5027727;28;20846;-73
2022/04/26 14:35:35;;;;;;;4.28;1.98;;;;;;;24.25;20.40;100880.03;5042250;28;20403;-73
2022/04/26 14:38:03;;;;;;;4.07;1.65;;;;;;;30.04;16.00;100875.09;5028540;28;20182;-73
2022/04/26 14:40:31;;;;;;;3.45;1.90;;;;;;;28.56;15.96;100876.97;5044818;28;20050;-73
2022/04/26 14:43:05;;;;;;;10.23;2.08;;;;;;;27.50;17.70;100873.53;5044402;28;20053;-73
2022/04/26 14:45:33;;;;;;;5.60;1.63;;;;;;;25.62;18.78;100866.94;5044460;28;20052;-73
2022/04/26 14:48:00;;;;;;;3.22;1.42;;;;;;;24.30;20.37;100868.75;5065334;28;20087;-73
2022/04/26 14:50:30;;;;;;;3.45;1.75;;;;;;;23.67;19.82;100872.25;5058384;28;20581;-73
2022/04/26 14:52:57;;;;;;;7.40;1.80;;;;;;;22.97;20.23;100870.03;5064368;28;20044;-74
2022/04/26 14:55:24;;;;;;;3.58;1.60;;;;;;;22.50;21.17;100865.16;5045284;28;20055;-73
2022/04/26 14:57:53;;;;;;;6.43;1.40;;;;;;;21.40;20.50;100858.63;5064170;28;20414;-73
2022/04/26 15:00:20;;;;;;;4.78;1.65;;;;;;;20.97;21.55;100870.88;5043452;28;20131;-73
2022/04/26 15:02:51;;;;;;;5.15;1.70;;;;;;;20.61;22.23;100871.84;5041202;28;20052;-73
2022/04/26 15:05:18;;;;;;;7.75;1.40;;;;;;;20.59;22.86;100865.81;5028425;28;20045;-73
2022/04/26 15:10:31;;;;;;;4.22;1.48;;;;;;;20.76;23.00;100862.31;5057940;28;20040;-74
2022/04/26 15:18:30;;;;;;;7.05;1.90;;;;;;;20.88;22.43;100869.13;5057883;28;20041;-73
2022/04/26 15:20:59;;;;;;;5.82;1.80;;;;;;;20.82;22.63;100867.06;5039972;28;20048;-73
2022/04/26 15:23:27;;;;;;;2.85;1.60;;;;;;;20.88;22.87;100870.97;5060384;28;20128;-74
2022/04/26 15:25:55;;;;;;;5.68;1.20;;;;;;;22.93;21.06;100871.38;5022904;28;20044;-73
2022/04/26 15:28:23;;;;;;;3.03;1.60;;;;;;;24.33;19.66;100870.28;5029365;28;20102;-74
2022/04/26 15:30:51;;;;;;;3.60;1.80;;;;;;;24.76;19.23;100866.22;5027854;28;20053;-73
2022/04/26 15:33:19;;;;;;;5.05;1.80;;;;;;;24.66;20.26;100863.75;5041650;28;20753;-73
2022/04/26 15:35:46;;;;;;;4.07;2.28;;;;;;;23.60;20.34;100872.09;5045260;28;20052;-74
2022/04/26 15:38:14;;;;;;;4.20;1.70;;;;;;;22.21;21.21;100871.75;5043163;28;20048;-73
2022/04/26 15:40:43;;;;;;;4.60;1.45;;;;;;;21.96;21.94;100868.03;5038774;28;20060;-74
2022/04/26 15:43:10;;;;;;;4.60;1.60;;;;;;;21.67;22.70;100870.22;5023541;28;20090;-73
2022/04/26 15:45:37;;;;;;;2.55;1.60;;;;;;;22.14;22.30;100869.84;5058167;28;20088;-73
2022/04/26 15:48:06;;;;;;;8.30;1.67;;;;;;;27.44;17.38;100871.59;5059257;28;20048;-73
2022/04/26 15:50:33;;;;;;;3.38;1.40;;;;;;;29.62;15.57;100873.66;5042880;28;20530;-73
2022/04/26 15:53:00;;;;;;;6.53;1.80;;;;;;;26.81;17.44;100878.63;5026317;28;20060;-73
2022/04/26 15:55:39;;;;;;;3.85;1.92;;;;;;;24.64;19.66;100871.16;5041202;28;20360;-73
2022/04/26 15:58:08;;;;;;;3.85;1.55;;;;;;;23.18;21.37;100869.53;5064163;28;20048;-73
2022/04/26 16:00:35;;;;;;;2.83;1.45;;;;;;;22.28;21.74;100877.28;5057327;28;20686;-73